createdAt,value
2023-01-07T00:01:31.206Z,13.07
2023-01-07T00:04:00.435Z,12.40
2023-01-07T00:06:33.653Z,11.93
2023-01-07T00:09:02.479Z,11.56
2023-01-07T00:11:32.508Z,11.24
2023-01-07T00:14:01.154Z,11.22
2023-01-07T00:16:30.566Z,12.42
2023-01-07T00:19:00.449Z,13.51
2023-01-07T00:21:29.206Z,13.87
2023-01-07T00:23:59.983Z,13.19
2023-01-07T00:26:31.273Z,12.43
2023-01-07T00:29:00.097Z,11.86
2023-01-07T00:31:30.821Z,11.41
2023-01-07T00:33:59.368Z,11.07
2023-01-07T00:36:29.384Z,11.04
2023-01-07T00:39:11.714Z,12.08
2023-01-07T00:42:06.066Z,13.36
2023-01-07T00:44:34.133Z,13.86
2023-01-07T00:47:02.039Z,13.18
2023-01-07T00:49:32.732Z,12.47
2023-01-07T00:52:00.632Z,11.95
2023-01-07T00:54:28.597Z,11.55
2023-01-07T00:56:56.534Z,11.24
2023-01-07T00:59:24.631Z,10.98
2023-01-07T01:01:52.729Z,10.74
2023-01-07T01:04:20.605Z,10.77
2023-01-07T01:06:48.403Z,11.79
2023-01-07T01:09:16.170Z,12.82
2023-01-07T01:11:44.841Z,13.33
2023-01-07T01:14:12.681Z,12.82
2023-01-07T01:16:40.519Z,12.16
2023-01-07T01:19:08.407Z,11.66
2023-01-07T01:21:36.355Z,11.29
2023-01-07T01:24:04.434Z,11.00
2023-01-07T01:26:32.391Z,10.76
2023-01-07T01:29:00.157Z,10.76
2023-01-07T01:31:28.527Z,11.49
2023-01-07T01:33:56.814Z,12.18
2023-01-07T01:36:25.421Z,13.16
2023-01-07T01:38:56.672Z,13.60
2023-01-07T01:41:24.573Z,13.01
2023-01-07T01:43:53.285Z,12.33
2023-01-07T01:46:24.486Z,11.80
2023-01-07T01:48:57.052Z,11.38
2023-01-07T01:51:26.711Z,11.02
2023-01-07T01:53:55.731Z,10.73
2023-01-07T01:56:32.571Z,10.47
2023-01-07T01:59:04.676Z,10.54
2023-01-07T02:01:34.777Z,11.81
2023-01-07T02:04:10.202Z,13.12
2023-01-07T02:06:52.093Z,13.69
2023-01-07T02:10:10.429Z,12.98
2023-01-07T02:12:47.675Z,12.02
2023-01-07T02:15:25.207Z,11.50
2023-01-07T02:18:28.458Z,11.10
2023-01-07T02:21:35.525Z,10.73
2023-01-07T02:24:06.241Z,10.41
2023-01-07T02:26:54.271Z,10.19
2023-01-07T02:29:25.199Z,10.37
2023-01-07T02:32:21.735Z,11.83
2023-01-07T02:35:13.951Z,13.33
2023-01-07T02:38:00.744Z,13.51
2023-01-07T02:40:43.270Z,12.63
2023-01-07T02:43:45.360Z,11.91
2023-01-07T02:46:30.367Z,11.32
2023-01-07T02:49:00.515Z,10.94
2023-01-07T02:51:35.557Z,10.66
2023-01-07T02:54:04.032Z,10.38
2023-01-07T02:56:52.043Z,10.14
2023-01-07T02:59:29.134Z,10.28
2023-01-07T03:02:21.212Z,11.69
2023-01-07T03:04:54.998Z,12.50
2023-01-07T03:07:48.836Z,11.92
2023-01-07T03:10:22.490Z,11.14
2023-01-07T03:13:02.729Z,10.64
2023-01-07T03:15:50.901Z,10.24
2023-01-07T03:18:22.712Z,9.91
2023-01-07T03:20:54.948Z,9.65
2023-01-07T03:23:23.049Z,9.42
2023-01-07T03:25:52.035Z,9.22
2023-01-07T03:28:24.453Z,9.04
2023-01-07T03:30:53.841Z,9.17
2023-01-07T03:33:26.378Z,10.51
2023-01-07T03:35:56.005Z,11.97
2023-01-07T03:38:24.857Z,12.64
2023-01-07T03:40:53.046Z,11.94
2023-01-07T03:43:23.154Z,11.12
2023-01-07T03:45:52.420Z,10.51
2023-01-07T03:48:20.752Z,10.06
2023-01-07T03:50:49.477Z,9.69
2023-01-07T03:53:17.832Z,9.38
2023-01-07T03:55:47.325Z,9.08
2023-01-07T03:58:15.060Z,8.81
2023-01-07T04:00:42.960Z,8.56
2023-01-07T04:03:14.594Z,8.34
2023-01-07T04:05:44.575Z,8.16
2023-01-07T04:08:14.208Z,7.99
2023-01-07T04:10:43.892Z,7.83
2023-01-07T04:13:12.798Z,7.99
2023-01-07T04:15:42.547Z,9.44
2023-01-07T04:18:13.278Z,10.95
2023-01-07T04:20:41.130Z,11.58
2023-01-07T04:23:09.294Z,10.95
2023-01-07T04:25:37.096Z,10.24
2023-01-07T04:28:05.449Z,9.71
2023-01-07T04:30:35.882Z,9.33
2023-01-07T04:33:05.719Z,9.03
2023-01-07T04:35:34.238Z,8.79
2023-01-07T04:38:02.912Z,8.56
2023-01-07T04:40:30.809Z,8.30
2023-01-07T04:42:59.535Z,8.05
2023-01-07T04:45:27.559Z,8.10
2023-01-07T04:47:56.558Z,9.55
2023-01-07T04:50:24.702Z,11.07
2023-01-07T04:52:53.045Z,11.76
2023-01-07T04:55:20.818Z,11.08
2023-01-07T04:57:49.321Z,10.29
2023-01-07T05:00:18.192Z,9.73
2023-01-07T05:02:47.293Z,9.31
2023-01-07T05:05:15.373Z,9.02
2023-01-07T05:07:44.624Z,8.78
2023-01-07T05:10:13.547Z,8.57
2023-01-07T05:12:41.672Z,8.39
2023-01-07T05:15:11.361Z,8.45
2023-01-07T05:17:40.786Z,9.81
2023-01-07T05:20:09.179Z,11.36
2023-01-07T05:22:37.590Z,12.12
2023-01-07T05:25:06.381Z,11.49
2023-01-07T05:27:34.167Z,10.74
2023-01-07T05:30:03.728Z,10.19
2023-01-07T05:32:31.518Z,9.80
2023-01-07T05:34:59.303Z,9.50
2023-01-07T05:37:27.062Z,9.24
2023-01-07T05:39:55.979Z,9.02
2023-01-07T05:42:23.770Z,9.00
2023-01-07T05:44:51.783Z,9.90
2023-01-07T05:47:19.512Z,11.04
2023-01-07T05:49:47.493Z,11.87
2023-01-07T05:52:15.304Z,12.09
2023-01-07T05:54:43.142Z,11.49
2023-01-07T05:57:11.345Z,10.87
2023-01-07T05:59:39.076Z,10.41
2023-01-07T06:02:06.892Z,10.08
2023-01-07T06:04:34.681Z,9.81
2023-01-07T06:07:02.501Z,9.58
2023-01-07T06:09:30.226Z,9.37
2023-01-07T06:11:58.008Z,9.48
2023-01-07T06:14:25.714Z,10.77
2023-01-07T06:16:53.476Z,12.10
2023-01-07T06:19:23.029Z,12.79
2023-01-07T06:21:50.872Z,12.26
2023-01-07T06:24:18.625Z,11.54
2023-01-07T06:26:46.416Z,11.00
2023-01-07T06:29:14.320Z,10.60
2023-01-07T06:31:42.038Z,10.28
2023-01-07T06:34:10.079Z,10.00
2023-01-07T06:36:37.844Z,9.74
2023-01-07T06:39:05.672Z,9.83
2023-01-07T06:41:33.443Z,10.91
2023-01-07T06:44:01.417Z,11.85
2023-01-07T06:46:29.459Z,12.29
2023-01-07T06:48:57.465Z,11.78
2023-01-07T06:51:25.211Z,11.14
2023-01-07T06:53:52.944Z,10.67
2023-01-07T06:56:21.011Z,10.33
2023-01-07T06:58:48.738Z,10.06
2023-01-07T07:01:16.541Z,10.13
2023-01-07T07:03:44.548Z,11.39
2023-01-07T07:06:12.359Z,12.27
2023-01-07T07:08:40.138Z,12.55
2023-01-07T07:11:07.944Z,12.02
2023-01-07T07:13:36.111Z,11.41
2023-01-07T07:16:04.273Z,10.95
2023-01-07T07:18:32.619Z,10.61
2023-01-07T07:21:00.495Z,10.33
2023-01-07T07:23:28.299Z,10.09
2023-01-07T07:25:56.058Z,10.08
2023-01-07T07:28:23.850Z,11.09
2023-01-07T07:30:51.673Z,12.36
2023-01-07T07:33:19.851Z,13.03
2023-01-07T07:35:48.242Z,12.51
2023-01-07T07:38:17.709Z,11.83
2023-01-07T07:40:46.506Z,11.32
2023-01-07T07:43:15.046Z,10.96
2023-01-07T07:45:43.233Z,10.68
2023-01-07T07:48:13.475Z,10.45
2023-01-07T07:50:41.551Z,10.55
2023-01-07T07:53:10.641Z,11.86
2023-01-07T07:55:39.074Z,13.13
2023-01-07T07:58:06.884Z,13.47
2023-01-07T08:00:34.809Z,12.78
2023-01-07T08:03:02.992Z,12.09
2023-01-07T08:05:31.273Z,11.61
2023-01-07T08:07:59.306Z,11.24
2023-01-07T08:10:27.913Z,10.91
2023-01-07T08:12:55.782Z,10.64
2023-01-07T08:15:23.579Z,10.41
2023-01-07T08:18:02.728Z,10.22
2023-01-07T08:20:31.006Z,10.37
2023-01-07T08:23:00.589Z,11.35
2023-01-07T08:25:29.848Z,12.20
2023-01-07T08:27:59.092Z,12.69
2023-01-07T08:30:28.022Z,12.88
2023-01-07T08:32:56.360Z,12.39
2023-01-07T08:35:24.320Z,11.81
2023-01-07T08:37:52.144Z,11.37
2023-01-07T08:40:19.883Z,11.04
2023-01-07T08:42:47.700Z,10.94
2023-01-07T08:45:15.623Z,11.60
2023-01-07T08:47:47.670Z,12.42
2023-01-07T08:50:15.450Z,13.03
2023-01-07T08:52:46.575Z,13.31
2023-01-07T08:55:14.455Z,12.76
2023-01-07T08:57:42.211Z,12.17
2023-01-07T09:00:10.678Z,11.75
2023-01-07T09:02:38.501Z,11.43
2023-01-07T09:05:07.084Z,11.38
2023-01-07T09:07:35.138Z,12.15
2023-01-07T09:10:03.918Z,13.37
2023-01-07T09:12:31.742Z,14.24
2023-01-07T09:14:59.567Z,13.93
2023-01-07T09:17:28.015Z,13.35
2023-01-07T09:19:55.756Z,12.93
2023-01-07T09:22:23.667Z,12.63
2023-01-07T09:24:51.439Z,12.46
2023-01-07T09:27:19.220Z,12.43
2023-01-07T09:29:46.947Z,12.45
2023-01-07T09:32:14.777Z,12.42
2023-01-07T09:34:42.472Z,12.29
2023-01-07T09:37:10.197Z,12.15
2023-01-07T09:39:37.987Z,11.97
2023-01-07T09:42:13.696Z,11.84
2023-01-07T09:45:01.414Z,12.01
2023-01-07T09:47:29.710Z,13.56
2023-01-07T09:50:02.256Z,14.72
2023-01-07T09:52:44.433Z,14.47
2023-01-07T09:55:19.972Z,13.78
2023-01-07T09:57:48.416Z,13.48
2023-01-07T10:00:22.669Z,13.46
2023-01-07T10:03:06.485Z,13.62
2023-01-07T10:05:37.021Z,13.90
2023-01-07T10:08:32.164Z,14.23
2023-01-07T10:11:03.109Z,14.44
2023-01-07T10:13:49.188Z,14.34
2023-01-07T10:16:45.906Z,14.14
2023-01-07T10:19:19.768Z,13.86
2023-01-07T10:21:54.004Z,13.59
2023-01-07T10:24:27.844Z,13.35
2023-01-07T10:26:58.821Z,13.12
2023-01-07T10:29:32.791Z,12.90
2023-01-07T10:32:10.640Z,12.81
2023-01-07T10:34:46.244Z,12.71
2023-01-07T10:37:33.783Z,12.58
2023-01-07T10:40:23.108Z,12.49
2023-01-07T10:42:54.535Z,12.42
2023-01-07T10:45:50.117Z,12.70
2023-01-07T10:48:39.812Z,14.47
2023-01-07T10:51:23.374Z,15.52
2023-01-07T10:54:06.546Z,14.94
2023-01-07T10:56:47.000Z,14.26
2023-01-07T10:59:17.774Z,13.79
2023-01-07T11:01:49.067Z,13.48
2023-01-07T11:04:17.622Z,13.24
2023-01-07T11:06:57.565Z,13.04
2023-01-07T11:09:35.618Z,12.86
2023-01-07T11:12:21.563Z,12.73
2023-01-07T11:14:49.664Z,12.61
2023-01-07T11:17:36.396Z,12.77
2023-01-07T11:20:05.378Z,14.35
2023-01-07T11:22:35.763Z,15.46
2023-01-07T11:25:28.165Z,15.17
2023-01-07T11:28:01.094Z,14.54
2023-01-07T11:30:29.656Z,14.13
2023-01-07T11:33:07.125Z,13.88
2023-01-07T11:35:35.111Z,13.68
2023-01-07T11:38:03.056Z,13.51
2023-01-07T11:40:32.502Z,13.37
2023-01-07T11:43:01.578Z,13.25
2023-01-07T11:45:38.531Z,13.14
2023-01-07T11:48:08.732Z,13.04
2023-01-07T11:50:37.518Z,12.97
2023-01-07T11:53:14.569Z,12.92
2023-01-07T11:56:00.041Z,13.26
2023-01-07T11:58:33.938Z,14.97
2023-01-07T12:01:07.592Z,16.08
2023-01-07T12:03:46.151Z,15.79
2023-01-07T12:06:19.364Z,15.26
2023-01-07T12:09:27.244Z,14.96
2023-01-07T12:11:57.590Z,14.88
2023-01-07T12:14:31.447Z,15.02
2023-01-07T12:17:16.399Z,15.17
2023-01-07T12:20:06.210Z,15.17
2023-01-07T12:22:40.172Z,15.16
2023-01-07T12:25:34.648Z,15.22
2023-01-07T12:28:46.961Z,15.35
2023-01-07T12:31:39.882Z,15.71
2023-01-07T12:34:25.728Z,16.07
2023-01-07T12:37:12.630Z,16.44
2023-01-07T12:39:44.092Z,16.81
2023-01-07T12:44:56.941Z,17.45
2023-01-07T12:47:31.322Z,17.61
2023-01-07T12:50:06.934Z,17.53
2023-01-07T12:53:00.740Z,17.56
2023-01-07T12:55:35.713Z,17.72
2023-01-07T12:58:26.016Z,17.90
2023-01-07T13:01:05.269Z,18.09
2023-01-07T13:03:45.405Z,18.23
2023-01-07T13:06:34.566Z,18.30
2023-01-07T13:09:09.790Z,18.42
2023-01-07T13:12:01.134Z,18.52
2023-01-07T13:14:37.389Z,18.52
2023-01-07T13:17:24.747Z,18.34
2023-01-07T13:19:53.795Z,18.23
2023-01-07T13:22:30.783Z,18.21
2023-01-07T13:25:17.837Z,18.31
2023-01-07T13:28:19.330Z,18.47
2023-01-07T13:31:29.856Z,18.65
2023-01-07T13:34:42.139Z,18.89
2023-01-07T13:37:31.444Z,19.14
2023-01-07T13:40:06.266Z,19.32
2023-01-07T13:42:43.219Z,19.47
2023-01-07T13:45:25.100Z,19.57
2023-01-07T13:47:58.587Z,19.59
2023-01-07T13:50:39.519Z,19.40
2023-01-07T13:53:27.396Z,19.11
2023-01-07T13:56:17.844Z,18.80
2023-01-07T13:58:56.302Z,18.69
2023-01-07T14:01:34.959Z,18.62
2023-01-07T14:04:09.089Z,18.38
2023-01-07T14:06:40.013Z,18.29
2023-01-07T14:09:07.761Z,18.31
2023-01-07T14:11:36.187Z,18.25
2023-01-07T14:14:13.118Z,17.99
2023-01-07T14:16:43.184Z,17.63
2023-01-07T14:19:16.743Z,17.40
2023-01-07T14:22:01.528Z,17.15
2023-01-07T14:24:41.633Z,16.85
2023-01-07T14:27:30.513Z,16.56
2023-01-07T14:30:15.970Z,16.28
2023-01-07T14:32:44.883Z,16.24
2023-01-07T14:35:12.934Z,16.52
2023-01-07T14:37:45.223Z,16.80
2023-01-07T14:40:34.595Z,16.89
2023-01-07T14:43:03.734Z,16.87
2023-01-07T14:45:38.322Z,16.74
2023-01-07T14:48:08.829Z,16.48
2023-01-07T14:50:42.421Z,16.17
2023-01-07T14:53:16.154Z,15.83
2023-01-07T14:55:57.037Z,15.48
2023-01-07T14:58:39.924Z,15.16
2023-01-07T15:01:26.712Z,14.87
2023-01-07T15:04:18.067Z,14.60
2023-01-07T15:06:46.449Z,14.33
2023-01-07T15:09:36.666Z,14.11
2023-01-07T15:12:26.513Z,13.85
2023-01-07T15:15:22.815Z,13.62
2023-01-07T15:17:50.641Z,13.40
2023-01-07T15:20:18.452Z,13.23
2023-01-07T15:23:10.875Z,13.06
2023-01-07T15:26:05.690Z,12.87
2023-01-07T15:28:46.115Z,12.70
2023-01-07T15:31:36.126Z,12.54
2023-01-07T15:34:08.867Z,12.39
2023-01-07T15:36:45.520Z,12.27
2023-01-07T15:39:22.633Z,12.15
2023-01-07T15:41:53.155Z,12.02
2023-01-07T15:44:22.353Z,11.91
2023-01-07T15:46:50.347Z,11.80
2023-01-07T15:49:23.995Z,11.70
2023-01-07T15:51:59.714Z,11.59
2023-01-07T15:54:34.864Z,11.48
2023-01-07T15:57:04.696Z,11.36
2023-01-07T15:59:35.695Z,11.27
2023-01-07T16:02:24.231Z,11.19
2023-01-07T16:04:55.185Z,11.11
2023-01-07T16:07:43.186Z,11.06
2023-01-07T16:10:22.147Z,11.00
2023-01-07T16:12:52.548Z,10.95
2023-01-07T16:15:21.659Z,10.89
2023-01-07T16:17:51.330Z,11.12
2023-01-07T16:20:29.400Z,12.53
2023-01-07T16:23:27.066Z,13.88
2023-01-07T16:26:10.595Z,14.32
2023-01-07T16:28:41.960Z,13.63
2023-01-07T16:31:13.159Z,13.05
2023-01-07T16:33:42.488Z,12.63
2023-01-07T16:36:19.611Z,12.33
2023-01-07T16:38:52.185Z,12.05
2023-01-07T16:41:23.511Z,11.81
2023-01-07T16:43:54.157Z,11.59
2023-01-07T16:46:29.760Z,11.39
2023-01-07T16:49:30.205Z,11.22
2023-01-07T16:52:04.128Z,11.04
2023-01-07T16:54:37.355Z,10.90
2023-01-07T16:57:11.709Z,10.77
2023-01-07T16:59:45.843Z,10.66
2023-01-07T17:02:28.887Z,10.54
2023-01-07T17:05:12.849Z,10.41
2023-01-07T17:07:41.494Z,10.28
2023-01-07T17:10:28.037Z,10.16
2023-01-07T17:12:59.472Z,10.03
2023-01-07T17:15:33.745Z,10.12
2023-01-07T17:18:14.515Z,11.33
2023-01-07T17:20:53.264Z,12.60
2023-01-07T17:23:27.549Z,12.98
2023-01-07T17:26:07.809Z,12.35
2023-01-07T17:28:43.311Z,11.68
2023-01-07T17:31:11.292Z,11.20
2023-01-07T17:33:39.690Z,10.87
2023-01-07T17:36:15.024Z,10.59
2023-01-07T17:38:43.704Z,10.37
2023-01-07T17:41:33.229Z,10.19
2023-01-07T17:44:01.869Z,10.01
2023-01-07T17:46:32.613Z,9.86
2023-01-07T17:49:03.661Z,9.91
2023-01-07T17:51:33.053Z,10.63
2023-01-07T17:54:01.012Z,11.47
2023-01-07T17:56:29.263Z,12.21
2023-01-07T17:58:57.090Z,12.52
2023-01-07T18:01:25.993Z,12.03
2023-01-07T18:03:54.365Z,11.42
2023-01-07T18:06:24.653Z,10.94
2023-01-07T18:08:53.449Z,10.56
2023-01-07T18:11:43.585Z,10.53
2023-01-07T18:14:15.517Z,11.70
2023-01-07T18:16:43.401Z,12.67
2023-01-07T18:19:14.884Z,13.18
2023-01-07T18:21:43.139Z,12.62
2023-01-07T18:24:18.579Z,11.88
2023-01-07T18:26:47.123Z,11.32
2023-01-07T18:29:15.019Z,10.93
2023-01-07T18:31:44.097Z,10.62
2023-01-07T18:34:13.672Z,10.70
2023-01-07T18:36:41.782Z,12.09
2023-01-07T18:39:10.773Z,13.43
2023-01-07T18:41:39.723Z,14.00
2023-01-07T18:44:07.570Z,13.33
2023-01-07T18:46:35.336Z,12.55
2023-01-07T18:49:03.158Z,11.96
2023-01-07T18:51:30.886Z,11.55
2023-01-07T18:53:58.901Z,11.20
2023-01-07T18:56:26.736Z,10.87
2023-01-07T18:58:55.188Z,10.58
2023-01-07T19:01:23.429Z,10.34
2023-01-07T19:03:51.625Z,10.44
2023-01-07T19:06:19.611Z,11.75
2023-01-07T19:08:47.320Z,12.99
2023-01-07T19:11:22.257Z,13.47
2023-01-07T19:13:50.104Z,12.73
2023-01-07T19:16:18.223Z,11.88
2023-01-07T19:18:46.411Z,11.22
2023-01-07T19:21:14.798Z,10.73
2023-01-07T19:23:42.805Z,10.37
2023-01-07T19:26:11.530Z,10.07
2023-01-07T19:28:39.304Z,10.03
2023-01-07T19:31:08.462Z,10.87
2023-01-07T19:33:36.889Z,11.82
2023-01-07T19:36:09.021Z,12.57
2023-01-07T19:38:42.248Z,12.89
2023-01-07T19:41:16.914Z,12.20
2023-01-07T19:43:46.424Z,11.47
2023-01-07T19:46:21.114Z,10.96
2023-01-07T19:48:49.531Z,10.57
2023-01-07T19:51:17.329Z,10.27
2023-01-07T19:53:45.162Z,10.02
2023-01-07T19:56:12.997Z,10.06
2023-01-07T19:58:42.102Z,11.21
2023-01-07T20:01:15.824Z,12.35
2023-01-07T20:03:44.392Z,12.79
2023-01-07T20:06:14.581Z,12.18
2023-01-07T20:08:42.439Z,11.46
2023-01-07T20:11:10.689Z,10.83
2023-01-07T20:13:39.435Z,10.35
2023-01-07T20:16:09.575Z,9.99
2023-01-07T20:18:39.003Z,9.69
2023-01-07T20:21:07.661Z,9.67
2023-01-07T20:23:38.874Z,10.77
2023-01-07T20:26:12.021Z,11.95
2023-01-07T20:28:41.051Z,12.37
2023-01-07T20:31:11.498Z,11.67
2023-01-07T20:33:40.690Z,10.92
2023-01-07T20:36:10.795Z,10.31
2023-01-07T20:38:39.206Z,9.86
2023-01-07T20:41:08.358Z,9.52
2023-01-07T20:43:37.187Z,9.56
2023-01-07T20:46:07.914Z,10.91
2023-01-07T20:48:35.944Z,12.22
2023-01-07T20:51:08.736Z,12.75
2023-01-07T20:53:36.693Z,11.97
2023-01-07T20:56:05.333Z,11.08
2023-01-07T20:58:35.193Z,10.42
2023-01-07T21:01:07.913Z,9.91
2023-01-07T21:03:35.965Z,9.47
2023-01-07T21:06:04.308Z,9.13
2023-01-07T21:08:32.000Z,9.17
2023-01-07T21:10:59.776Z,10.37
2023-01-07T21:13:27.597Z,11.57
2023-01-07T21:16:02.723Z,12.09
2023-01-07T21:18:31.894Z,11.39
2023-01-07T21:21:00.922Z,10.60
2023-01-07T21:23:29.077Z,9.98
2023-01-07T21:25:57.124Z,9.48
2023-01-07T21:28:25.882Z,9.09
2023-01-07T21:30:53.704Z,9.18
2023-01-07T21:33:21.442Z,10.61
2023-01-07T21:35:49.167Z,11.85
2023-01-07T21:38:17.320Z,12.35
2023-01-07T21:40:47.116Z,11.53
2023-01-07T21:43:14.816Z,10.62
2023-01-07T21:45:42.813Z,9.89
2023-01-07T21:48:10.684Z,9.33
2023-01-07T21:50:38.713Z,9.12
2023-01-07T21:53:06.584Z,10.02
2023-01-07T21:55:37.862Z,11.10
2023-01-07T21:58:05.650Z,11.72
2023-01-07T22:00:33.411Z,11.10
2023-01-07T22:03:01.403Z,10.29
2023-01-07T22:05:29.493Z,9.64
2023-01-07T22:07:57.206Z,9.12
2023-01-07T22:10:25.066Z,8.96
2023-01-07T22:12:52.927Z,9.93
2023-01-07T22:19:40.962Z,11.05
2023-01-07T22:22:12.047Z,10.25
2023-01-07T22:24:44.176Z,9.56
2023-01-07T22:27:13.174Z,9.30
2023-01-07T22:29:46.956Z,10.36
2023-01-07T22:32:23.116Z,11.61
2023-01-07T22:34:52.143Z,11.94
2023-01-07T22:37:21.861Z,11.06
2023-01-07T22:39:57.976Z,10.13
2023-01-07T22:42:33.796Z,9.42
2023-01-07T22:45:10.005Z,8.89
2023-01-07T22:47:41.935Z,8.79
2023-01-07T22:50:11.331Z,9.95
2023-01-07T22:52:40.245Z,11.01
2023-01-07T22:55:09.504Z,11.43
2023-01-07T22:57:39.513Z,10.72
2023-01-07T23:00:16.482Z,9.90
2023-01-07T23:02:45.490Z,9.27
2023-01-07T23:05:14.603Z,8.85
2023-01-07T23:07:43.354Z,8.81
2023-01-07T23:10:12.286Z,10.07
2023-01-07T23:12:41.061Z,11.42
2023-01-07T23:15:10.391Z,11.92
2023-01-07T23:17:39.342Z,11.14
2023-01-07T23:20:08.953Z,10.29
2023-01-07T23:22:38.052Z,9.66
2023-01-07T23:25:07.059Z,9.19
2023-01-07T23:27:34.907Z,8.82
2023-01-07T23:30:02.849Z,8.49
2023-01-07T23:32:30.717Z,8.21
2023-01-07T23:34:58.432Z,8.32
2023-01-07T23:37:26.404Z,9.68
2023-01-07T23:39:54.105Z,10.96
2023-01-07T23:42:22.075Z,11.54
2023-01-07T23:44:49.851Z,10.85
2023-01-07T23:47:17.573Z,10.06
2023-01-07T23:49:45.332Z,9.48
2023-01-07T23:52:13.103Z,9.03
2023-01-07T23:54:41.175Z,8.66
2023-01-07T23:57:09.269Z,8.34
2023-01-07T23:59:37.844Z,8.09
